sensor_id;sensor_type;location;lat;lon;timestamp;P1;durP1;ratioP1;P2;durP2;ratioP2
40074;SDS011;26529;51.530;11.754;2023-02-18T00:02:05;5.85;;;2.50;;
40074;SDS011;26529;51.530;11.754;2023-02-18T00:04:31;6.75;;;2.53;;
40074;SDS011;26529;51.530;11.754;2023-02-18T00:06:56;5.63;;;2.80;;
40074;SDS011;26529;51.530;11.754;2023-02-18T00:09:22;7.10;;;2.65;;
40074;SDS011;26529;51.530;11.754;2023-02-18T00:11:47;4.22;;;2.63;;
40074;SDS011;26529;51.530;11.754;2023-02-18T00:14:13;5.30;;;2.60;;
40074;SDS011;26529;51.530;11.754;2023-02-18T00:16:40;4.70;;;2.30;;
40074;SDS011;26529;51.530;11.754;2023-02-18T00:19:09;3.63;;;2.45;;
40074;SDS011;26529;51.530;11.754;2023-02-18T00:21:37;4.13;;;2.33;;
40074;SDS011;26529;51.530;11.754;2023-02-18T00:24:03;4.47;;;2.40;;
40074;SDS011;26529;51.530;11.754;2023-02-18T00:26:30;3.70;;;2.30;;
40074;SDS011;26529;51.530;11.754;2023-02-18T00:28:55;7.60;;;2.17;;
40074;SDS011;26529;51.530;11.754;2023-02-18T00:31:29;4.20;;;2.25;;
40074;SDS011;26529;51.530;11.754;2023-02-18T00:33:58;3.30;;;2.30;;
40074;SDS011;26529;51.530;11.754;2023-02-18T00:36:26;4.03;;;2.33;;
40074;SDS011;26529;51.530;11.754;2023-02-18T00:38:56;5.13;;;2.38;;
40074;SDS011;26529;51.530;11.754;2023-02-18T00:41:24;6.78;;;2.20;;
40074;SDS011;26529;51.530;11.754;2023-02-18T00:43:51;4.95;;;1.95;;
40074;SDS011;26529;51.530;11.754;2023-02-18T00:46:18;3.45;;;2.13;;
40074;SDS011;26529;51.530;11.754;2023-02-18T00:48:44;3.40;;;2.33;;
40074;SDS011;26529;51.530;11.754;2023-02-18T00:51:10;2.80;;;2.03;;
40074;SDS011;26529;51.530;11.754;2023-02-18T00:53:36;4.75;;;2.40;;
40074;SDS011;26529;51.530;11.754;2023-02-18T00:56:02;2.25;;;1.75;;
40074;SDS011;26529;51.530;11.754;2023-02-18T00:58:30;4.53;;;2.40;;
40074;SDS011;26529;51.530;11.754;2023-02-18T01:00:56;5.40;;;2.22;;
40074;SDS011;26529;51.530;11.754;2023-02-18T01:03:21;4.47;;;2.05;;
40074;SDS011;26529;51.530;11.754;2023-02-18T01:05:48;4.30;;;2.03;;
40074;SDS011;26529;51.530;11.754;2023-02-18T01:08:17;3.22;;;2.22;;
40074;SDS011;26529;51.530;11.754;2023-02-18T01:10:45;3.20;;;2.05;;
40074;SDS011;26529;51.530;11.754;2023-02-18T01:13:12;5.53;;;2.22;;
40074;SDS011;26529;51.530;11.754;2023-02-18T01:15:39;4.90;;;1.85;;
40074;SDS011;26529;51.530;11.754;2023-02-18T01:18:05;4.05;;;1.90;;
40074;SDS011;26529;51.530;11.754;2023-02-18T01:20:33;3.30;;;1.70;;
40074;SDS011;26529;51.530;11.754;2023-02-18T01:22:59;3.97;;;1.80;;
40074;SDS011;26529;51.530;11.754;2023-02-18T01:25:25;3.28;;;1.90;;
40074;SDS011;26529;51.530;11.754;2023-02-18T01:27:50;2.70;;;1.88;;
40074;SDS011;26529;51.530;11.754;2023-02-18T01:30:16;3.92;;;1.80;;
40074;SDS011;26529;51.530;11.754;2023-02-18T01:32:43;5.55;;;2.50;;
40074;SDS011;26529;51.530;11.754;2023-02-18T01:35:10;5.30;;;1.88;;
40074;SDS011;26529;51.530;11.754;2023-02-18T01:37:37;4.93;;;1.95;;
40074;SDS011;26529;51.530;11.754;2023-02-18T01:40:05;4.07;;;2.08;;
40074;SDS011;26529;51.530;11.754;2023-02-18T01:42:31;3.10;;;1.75;;
40074;SDS011;26529;51.530;11.754;2023-02-18T01:48:01;4.50;;;1.85;;
40074;SDS011;26529;51.530;11.754;2023-02-18T01:50:28;4.85;;;1.75;;
40074;SDS011;26529;51.530;11.754;2023-02-18T01:52:54;6.20;;;1.98;;
40074;SDS011;26529;51.530;11.754;2023-02-18T01:55:19;3.22;;;1.73;;
40074;SDS011;26529;51.530;11.754;2023-02-18T01:57:45;3.38;;;1.88;;
40074;SDS011;26529;51.530;11.754;2023-02-18T02:00:16;2.47;;;1.58;;
40074;SDS011;26529;51.530;11.754;2023-02-18T02:02:46;3.67;;;1.98;;
40074;SDS011;26529;51.530;11.754;2023-02-18T02:05:14;7.15;;;2.50;;
40074;SDS011;26529;51.530;11.754;2023-02-18T02:07:40;3.03;;;1.50;;
40074;SDS011;26529;51.530;11.754;2023-02-18T02:10:08;3.55;;;1.80;;
40074;SDS011;26529;51.530;11.754;2023-02-18T02:20:53;4.13;;;1.70;;
40074;SDS011;26529;51.530;11.754;2023-02-18T02:29:35;3.35;;;1.50;;
40074;SDS011;26529;51.530;11.754;2023-02-18T02:38:06;3.15;;;1.33;;
40074;SDS011;26529;51.530;11.754;2023-02-18T02:43:37;2.95;;;1.50;;
40074;SDS011;26529;51.530;11.754;2023-02-18T02:46:17;3.15;;;1.60;;
40074;SDS011;26529;51.530;11.754;2023-02-18T02:48:54;3.85;;;1.92;;
40074;SDS011;26529;51.530;11.754;2023-02-18T02:51:48;4.15;;;1.65;;
40074;SDS011;26529;51.530;11.754;2023-02-18T02:56:43;2.30;;;1.63;;
40074;SDS011;26529;51.530;11.754;2023-02-18T02:59:15;3.75;;;1.70;;
40074;SDS011;26529;51.530;11.754;2023-02-18T03:01:53;2.78;;;1.52;;
40074;SDS011;26529;51.530;11.754;2023-02-18T03:04:49;4.35;;;2.08;;
40074;SDS011;26529;51.530;11.754;2023-02-18T03:15:39;2.50;;;1.65;;
40074;SDS011;26529;51.530;11.754;2023-02-18T03:18:15;3.22;;;1.65;;
40074;SDS011;26529;51.530;11.754;2023-02-18T03:20:59;2.90;;;1.87;;
40074;SDS011;26529;51.530;11.754;2023-02-18T03:23:32;2.67;;;1.40;;
40074;SDS011;26529;51.530;11.754;2023-02-18T03:26:01;9.38;;;1.70;;
40074;SDS011;26529;51.530;11.754;2023-02-18T03:28:30;3.17;;;1.55;;
40074;SDS011;26529;51.530;11.754;2023-02-18T03:31:02;3.17;;;1.55;;
40074;SDS011;26529;51.530;11.754;2023-02-18T03:33:34;2.58;;;1.05;;
40074;SDS011;26529;51.530;11.754;2023-02-18T03:36:03;1.80;;;1.25;;
40074;SDS011;26529;51.530;11.754;2023-02-18T03:38:37;3.72;;;1.42;;
40074;SDS011;26529;51.530;11.754;2023-02-18T03:41:07;3.25;;;1.17;;
40074;SDS011;26529;51.530;11.754;2023-02-18T03:43:34;5.85;;;1.65;;
40074;SDS011;26529;51.530;11.754;2023-02-18T03:46:00;9.10;;;1.50;;
40074;SDS011;26529;51.530;11.754;2023-02-18T03:48:27;3.83;;;1.63;;
40074;SDS011;26529;51.530;11.754;2023-02-18T03:50:52;2.30;;;1.20;;
40074;SDS011;26529;51.530;11.754;2023-02-18T03:53:18;1.65;;;1.00;;
40074;SDS011;26529;51.530;11.754;2023-02-18T03:55:43;3.10;;;1.50;;
40074;SDS011;26529;51.530;11.754;2023-02-18T03:58:09;1.65;;;1.20;;
40074;SDS011;26529;51.530;11.754;2023-02-18T04:00:34;1.83;;;1.15;;
40074;SDS011;26529;51.530;11.754;2023-02-18T04:03:00;3.13;;;1.23;;
40074;SDS011;26529;51.530;11.754;2023-02-18T04:05:25;3.17;;;1.42;;
40074;SDS011;26529;51.530;11.754;2023-02-18T04:07:51;2.85;;;1.58;;
40074;SDS011;26529;51.530;11.754;2023-02-18T04:10:16;3.28;;;1.13;;
40074;SDS011;26529;51.530;11.754;2023-02-18T04:12:42;3.80;;;1.45;;
40074;SDS011;26529;51.530;11.754;2023-02-18T04:15:07;2.33;;;1.17;;
40074;SDS011;26529;51.530;11.754;2023-02-18T04:17:33;2.78;;;1.50;;
40074;SDS011;26529;51.530;11.754;2023-02-18T04:19:59;3.88;;;1.60;;
40074;SDS011;26529;51.530;11.754;2023-02-18T04:22:24;2.17;;;1.40;;
40074;SDS011;26529;51.530;11.754;2023-02-18T04:24:50;4.15;;;1.30;;
40074;SDS011;26529;51.530;11.754;2023-02-18T04:27:15;2.33;;;0.80;;
40074;SDS011;26529;51.530;11.754;2023-02-18T04:29:41;1.95;;;1.27;;
40074;SDS011;26529;51.530;11.754;2023-02-18T04:32:06;2.35;;;1.15;;
40074;SDS011;26529;51.530;11.754;2023-02-18T04:34:32;3.13;;;1.35;;
40074;SDS011;26529;51.530;11.754;2023-02-18T04:36:57;3.05;;;1.25;;
40074;SDS011;26529;51.530;11.754;2023-02-18T04:39:23;2.40;;;1.10;;
40074;SDS011;26529;51.530;11.754;2023-02-18T04:41:48;2.80;;;1.20;;
40074;SDS011;26529;51.530;11.754;2023-02-18T04:44:14;1.88;;;0.80;;
40074;SDS011;26529;51.530;11.754;2023-02-18T04:46:39;3.08;;;1.20;;
40074;SDS011;26529;51.530;11.754;2023-02-18T04:49:05;2.42;;;1.17;;
40074;SDS011;26529;51.530;11.754;2023-02-18T04:51:30;2.83;;;1.40;;
40074;SDS011;26529;51.530;11.754;2023-02-18T04:53:56;2.70;;;1.30;;
40074;SDS011;26529;51.530;11.754;2023-02-18T04:56:22;1.38;;;0.98;;
40074;SDS011;26529;51.530;11.754;2023-02-18T04:58:47;1.60;;;1.10;;
40074;SDS011;26529;51.530;11.754;2023-02-18T05:01:12;1.73;;;1.10;;
40074;SDS011;26529;51.530;11.754;2023-02-18T05:03:38;1.67;;;1.08;;
40074;SDS011;26529;51.530;11.754;2023-02-18T05:06:04;1.40;;;0.93;;
40074;SDS011;26529;51.530;11.754;2023-02-18T05:08:29;1.73;;;1.10;;
40074;SDS011;26529;51.530;11.754;2023-02-18T05:10:55;3.20;;;1.17;;
40074;SDS011;26529;51.530;11.754;2023-02-18T05:13:20;2.50;;;1.45;;
40074;SDS011;26529;51.530;11.754;2023-02-18T05:15:47;3.65;;;1.30;;
40074;SDS011;26529;51.530;11.754;2023-02-18T05:18:13;1.98;;;1.20;;
40074;SDS011;26529;51.530;11.754;2023-02-18T05:20:38;2.28;;;1.15;;
40074;SDS011;26529;51.530;11.754;2023-02-18T05:23:04;2.03;;;1.10;;
40074;SDS011;26529;51.530;11.754;2023-02-18T05:25:29;1.33;;;1.10;;
40074;SDS011;26529;51.530;11.754;2023-02-18T05:27:55;1.60;;;0.95;;
40074;SDS011;26529;51.530;11.754;2023-02-18T05:30:20;1.80;;;1.00;;
40074;SDS011;26529;51.530;11.754;2023-02-18T05:32:46;1.42;;;0.98;;
40074;SDS011;26529;51.530;11.754;2023-02-18T05:35:11;1.58;;;0.93;;
40074;SDS011;26529;51.530;11.754;2023-02-18T05:37:38;1.88;;;1.10;;
40074;SDS011;26529;51.530;11.754;2023-02-18T05:40:03;2.30;;;0.90;;
40074;SDS011;26529;51.530;11.754;2023-02-18T05:42:29;1.10;;;0.80;;
40074;SDS011;26529;51.530;11.754;2023-02-18T05:44:57;1.98;;;0.80;;
40074;SDS011;26529;51.530;11.754;2023-02-18T05:47:23;1.25;;;0.70;;
40074;SDS011;26529;51.530;11.754;2023-02-18T05:49:49;1.88;;;0.95;;
40074;SDS011;26529;51.530;11.754;2023-02-18T05:52:15;2.15;;;0.82;;
40074;SDS011;26529;51.530;11.754;2023-02-18T05:54:41;1.15;;;0.88;;
40074;SDS011;26529;51.530;11.754;2023-02-18T05:57:07;2.35;;;1.10;;
40074;SDS011;26529;51.530;11.754;2023-02-18T05:59:32;1.27;;;0.80;;
40074;SDS011;26529;51.530;11.754;2023-02-18T06:01:58;1.88;;;0.77;;
40074;SDS011;26529;51.530;11.754;2023-02-18T06:04:24;1.92;;;0.82;;
40074;SDS011;26529;51.530;11.754;2023-02-18T06:06:50;1.75;;;1.00;;
40074;SDS011;26529;51.530;11.754;2023-02-18T06:09:15;2.08;;;1.00;;
40074;SDS011;26529;51.530;11.754;2023-02-18T06:11:41;1.58;;;1.00;;
40074;SDS011;26529;51.530;11.754;2023-02-18T06:14:07;2.88;;;1.17;;
40074;SDS011;26529;51.530;11.754;2023-02-18T06:16:32;1.55;;;0.60;;
40074;SDS011;26529;51.530;11.754;2023-02-18T06:18:58;1.15;;;0.82;;
40074;SDS011;26529;51.530;11.754;2023-02-18T06:21:24;0.95;;;0.65;;
40074;SDS011;26529;51.530;11.754;2023-02-18T06:23:49;1.45;;;0.80;;
40074;SDS011;26529;51.530;11.754;2023-02-18T06:26:15;1.58;;;0.63;;
40074;SDS011;26529;51.530;11.754;2023-02-18T06:28:40;1.55;;;0.50;;
40074;SDS011;26529;51.530;11.754;2023-02-18T06:31:06;3.60;;;0.90;;
40074;SDS011;26529;51.530;11.754;2023-02-18T06:33:31;2.70;;;1.02;;
40074;SDS011;26529;51.530;11.754;2023-02-18T06:36:01;1.90;;;1.00;;
40074;SDS011;26529;51.530;11.754;2023-02-18T06:38:36;5.18;;;1.10;;
40074;SDS011;26529;51.530;11.754;2023-02-18T06:41:02;3.50;;;0.93;;
40074;SDS011;26529;51.530;11.754;2023-02-18T06:43:28;5.65;;;0.90;;
40074;SDS011;26529;51.530;11.754;2023-02-18T06:45:54;4.18;;;0.93;;
40074;SDS011;26529;51.530;11.754;2023-02-18T06:48:20;5.40;;;1.30;;
40074;SDS011;26529;51.530;11.754;2023-02-18T06:50:45;8.95;;;1.50;;
40074;SDS011;26529;51.530;11.754;2023-02-18T06:53:11;7.55;;;1.25;;
40074;SDS011;26529;51.530;11.754;2023-02-18T06:55:37;8.35;;;1.17;;
40074;SDS011;26529;51.530;11.754;2023-02-18T06:58:03;6.32;;;1.10;;
40074;SDS011;26529;51.530;11.754;2023-02-18T07:00:29;3.42;;;0.90;;
40074;SDS011;26529;51.530;11.754;2023-02-18T07:02:54;6.53;;;1.27;;
40074;SDS011;26529;51.530;11.754;2023-02-18T07:05:20;6.32;;;1.42;;
40074;SDS011;26529;51.530;11.754;2023-02-18T07:07:45;7.28;;;0.93;;
40074;SDS011;26529;51.530;11.754;2023-02-18T07:10:11;11.98;;;1.45;;
40074;SDS011;26529;51.530;11.754;2023-02-18T07:12:36;6.45;;;1.48;;
40074;SDS011;26529;51.530;11.754;2023-02-18T07:15:02;8.48;;;1.10;;
40074;SDS011;26529;51.530;11.754;2023-02-18T07:17:28;6.75;;;1.35;;
40074;SDS011;26529;51.530;11.754;2023-02-18T07:19:53;5.75;;;1.25;;
40074;SDS011;26529;51.530;11.754;2023-02-18T07:22:20;18.02;;;1.50;;
40074;SDS011;26529;51.530;11.754;2023-02-18T07:24:50;13.23;;;1.83;;
40074;SDS011;26529;51.530;11.754;2023-02-18T07:27:16;13.07;;;2.00;;
40074;SDS011;26529;51.530;11.754;2023-02-18T07:29:42;12.95;;;1.55;;
40074;SDS011;26529;51.530;11.754;2023-02-18T07:32:09;10.25;;;1.42;;
40074;SDS011;26529;51.530;11.754;2023-02-18T07:34:37;12.90;;;1.75;;
40074;SDS011;26529;51.530;11.754;2023-02-18T07:37:02;9.30;;;1.70;;
40074;SDS011;26529;51.530;11.754;2023-02-18T07:39:33;15.85;;;1.70;;
40074;SDS011;26529;51.530;11.754;2023-02-18T07:42:11;10.30;;;1.65;;
40074;SDS011;26529;51.530;11.754;2023-02-18T07:44:38;16.98;;;1.80;;
40074;SDS011;26529;51.530;11.754;2023-02-18T07:47:05;11.00;;;1.30;;
40074;SDS011;26529;51.530;11.754;2023-02-18T07:49:31;10.73;;;1.83;;
40074;SDS011;26529;51.530;11.754;2023-02-18T07:51:57;5.53;;;0.90;;
40074;SDS011;26529;51.530;11.754;2023-02-18T07:54:22;12.45;;;1.70;;
40074;SDS011;26529;51.530;11.754;2023-02-18T07:56:48;11.57;;;1.20;;
40074;SDS011;26529;51.530;11.754;2023-02-18T07:59:13;5.88;;;1.38;;
40074;SDS011;26529;51.530;11.754;2023-02-18T08:01:39;7.47;;;1.15;;
40074;SDS011;26529;51.530;11.754;2023-02-18T08:04:05;6.05;;;1.23;;
40074;SDS011;26529;51.530;11.754;2023-02-18T08:06:35;8.57;;;0.95;;
40074;SDS011;26529;51.530;11.754;2023-02-18T08:09:02;22.25;;;1.63;;
40074;SDS011;26529;51.530;11.754;2023-02-18T08:11:29;8.32;;;1.15;;
40074;SDS011;26529;51.530;11.754;2023-02-18T08:13:54;11.73;;;1.40;;
40074;SDS011;26529;51.530;11.754;2023-02-18T08:16:20;7.75;;;0.90;;
40074;SDS011;26529;51.530;11.754;2023-02-18T08:18:46;10.40;;;1.23;;
40074;SDS011;26529;51.530;11.754;2023-02-18T08:21:14;6.57;;;0.55;;
40074;SDS011;26529;51.530;11.754;2023-02-18T08:23:40;8.90;;;1.08;;
40074;SDS011;26529;51.530;11.754;2023-02-18T08:26:06;10.10;;;1.77;;
40074;SDS011;26529;51.530;11.754;2023-02-18T08:28:40;16.05;;;1.58;;
40074;SDS011;26529;51.530;11.754;2023-02-18T08:31:06;10.85;;;1.38;;
40074;SDS011;26529;51.530;11.754;2023-02-18T08:33:32;9.75;;;1.35;;
40074;SDS011;26529;51.530;11.754;2023-02-18T08:35:57;9.85;;;0.98;;
40074;SDS011;26529;51.530;11.754;2023-02-18T08:38:23;4.78;;;0.85;;
40074;SDS011;26529;51.530;11.754;2023-02-18T08:40:49;11.40;;;1.83;;
40074;SDS011;26529;51.530;11.754;2023-02-18T08:43:15;3.90;;;1.10;;
40074;SDS011;26529;51.530;11.754;2023-02-18T08:45:43;5.97;;;1.20;;
40074;SDS011;26529;51.530;11.754;2023-02-18T08:48:10;5.55;;;1.05;;
40074;SDS011;26529;51.530;11.754;2023-02-18T08:50:38;12.63;;;1.58;;
40074;SDS011;26529;51.530;11.754;2023-02-18T08:53:03;5.97;;;0.73;;
40074;SDS011;26529;51.530;11.754;2023-02-18T08:55:30;9.23;;;0.75;;
40074;SDS011;26529;51.530;11.754;2023-02-18T08:57:57;5.15;;;0.80;;
40074;SDS011;26529;51.530;11.754;2023-02-18T09:00:22;7.03;;;0.75;;
40074;SDS011;26529;51.530;11.754;2023-02-18T09:02:48;7.32;;;1.02;;
40074;SDS011;26529;51.530;11.754;2023-02-18T09:05:14;6.07;;;0.90;;
40074;SDS011;26529;51.530;11.754;2023-02-18T09:07:39;5.53;;;1.08;;
40074;SDS011;26529;51.530;11.754;2023-02-18T09:10:05;3.13;;;0.98;;
40074;SDS011;26529;51.530;11.754;2023-02-18T09:12:32;5.35;;;0.95;;
40074;SDS011;26529;51.530;11.754;2023-02-18T09:14:58;5.57;;;1.23;;
40074;SDS011;26529;51.530;11.754;2023-02-18T09:17:24;4.70;;;0.70;;
40074;SDS011;26529;51.530;11.754;2023-02-18T09:19:50;4.97;;;0.85;;
40074;SDS011;26529;51.530;11.754;2023-02-18T09:22:16;6.13;;;0.95;;
40074;SDS011;26529;51.530;11.754;2023-02-18T09:24:42;9.95;;;1.35;;
40074;SDS011;26529;51.530;11.754;2023-02-18T09:27:07;10.85;;;1.00;;
40074;SDS011;26529;51.530;11.754;2023-02-18T09:29:33;5.60;;;1.05;;
40074;SDS011;26529;51.530;11.754;2023-02-18T09:32:01;8.70;;;1.75;;
40074;SDS011;26529;51.530;11.754;2023-02-18T09:34:28;2.65;;;1.00;;
40074;SDS011;26529;51.530;11.754;2023-02-18T09:36:53;7.60;;;1.58;;
40074;SDS011;26529;51.530;11.754;2023-02-18T09:39:19;3.33;;;1.33;;
40074;SDS011;26529;51.530;11.754;2023-02-18T09:41:46;9.65;;;1.38;;
40074;SDS011;26529;51.530;11.754;2023-02-18T09:44:21;4.50;;;0.88;;
40074;SDS011;26529;51.530;11.754;2023-02-18T09:46:58;6.53;;;1.63;;
40074;SDS011;26529;51.530;11.754;2023-02-18T09:49:33;8.63;;;1.52;;
40074;SDS011;26529;51.530;11.754;2023-02-18T09:52:06;11.98;;;1.20;;
40074;SDS011;26529;51.530;11.754;2023-02-18T09:54:39;4.65;;;1.20;;
40074;SDS011;26529;51.530;11.754;2023-02-18T09:57:04;5.30;;;1.58;;
40074;SDS011;26529;51.530;11.754;2023-02-18T09:59:31;4.50;;;0.95;;
40074;SDS011;26529;51.530;11.754;2023-02-18T10:01:57;6.05;;;1.08;;
40074;SDS011;26529;51.530;11.754;2023-02-18T10:04:27;4.15;;;0.98;;
40074;SDS011;26529;51.530;11.754;2023-02-18T10:06:58;5.00;;;1.33;;
40074;SDS011;26529;51.530;11.754;2023-02-18T10:09:29;3.67;;;1.23;;
40074;SDS011;26529;51.530;11.754;2023-02-18T10:12:12;6.05;;;1.35;;
40074;SDS011;26529;51.530;11.754;2023-02-18T10:14:42;7.28;;;1.50;;
40074;SDS011;26529;51.530;11.754;2023-02-18T10:17:12;6.15;;;1.35;;
40074;SDS011;26529;51.530;11.754;2023-02-18T10:19:40;5.88;;;1.58;;
40074;SDS011;26529;51.530;11.754;2023-02-18T10:22:10;6.68;;;2.00;;
40074;SDS011;26529;51.530;11.754;2023-02-18T10:24:39;9.02;;;2.00;;
40074;SDS011;26529;51.530;11.754;2023-02-18T10:27:07;5.82;;;1.50;;
40074;SDS011;26529;51.530;11.754;2023-02-18T10:29:33;6.60;;;1.58;;
40074;SDS011;26529;51.530;11.754;2023-02-18T10:34:48;7.03;;;1.65;;
40074;SDS011;26529;51.530;11.754;2023-02-18T10:37:37;5.82;;;1.45;;
40074;SDS011;26529;51.530;11.754;2023-02-18T10:40:17;9.13;;;2.00;;
40074;SDS011;26529;51.530;11.754;2023-02-18T10:45:32;8.52;;;1.95;;
40074;SDS011;26529;51.530;11.754;2023-02-18T10:50:56;7.00;;;1.50;;
40074;SDS011;26529;51.530;11.754;2023-02-18T10:55:58;7.50;;;1.30;;
40074;SDS011;26529;51.530;11.754;2023-02-18T11:01:01;5.82;;;1.73;;
40074;SDS011;26529;51.530;11.754;2023-02-18T11:06:37;5.97;;;1.38;;
40074;SDS011;26529;51.530;11.754;2023-02-18T11:09:06;6.25;;;1.25;;
40074;SDS011;26529;51.530;11.754;2023-02-18T11:11:45;7.65;;;1.88;;
40074;SDS011;26529;51.530;11.754;2023-02-18T11:14:12;4.13;;;1.23;;
40074;SDS011;26529;51.530;11.754;2023-02-18T11:16:43;6.95;;;1.23;;
40074;SDS011;26529;51.530;11.754;2023-02-18T11:22:17;9.35;;;1.30;;
40074;SDS011;26529;51.530;11.754;2023-02-18T11:24:44;6.88;;;1.50;;
40074;SDS011;26529;51.530;11.754;2023-02-18T11:27:58;3.97;;;1.10;;
40074;SDS011;26529;51.530;11.754;2023-02-18T11:30:16;6.03;;;1.10;;
40074;SDS011;26529;51.530;11.754;2023-02-18T11:32:46;5.03;;;1.20;;
40074;SDS011;26529;51.530;11.754;2023-02-18T11:35:24;8.00;;;1.35;;
40074;SDS011;26529;51.530;11.754;2023-02-18T11:37:51;6.95;;;1.40;;
40074;SDS011;26529;51.530;11.754;2023-02-18T11:40:19;8.57;;;1.42;;
40074;SDS011;26529;51.530;11.754;2023-02-18T11:42:50;6.53;;;1.45;;
40074;SDS011;26529;51.530;11.754;2023-02-18T11:45:26;6.75;;;1.35;;
40074;SDS011;26529;51.530;11.754;2023-02-18T11:47:58;9.93;;;2.45;;
40074;SDS011;26529;51.530;11.754;2023-02-18T11:50:26;7.68;;;2.35;;
40074;SDS011;26529;51.530;11.754;2023-02-18T11:52:55;10.05;;;2.70;;
40074;SDS011;26529;51.530;11.754;2023-02-18T11:55:24;11.30;;;2.78;;
40074;SDS011;26529;51.530;11.754;2023-02-18T11:57:58;12.18;;;3.33;;
40074;SDS011;26529;51.530;11.754;2023-02-18T12:00:38;13.02;;;4.18;;
40074;SDS011;26529;51.530;11.754;2023-02-18T12:05:56;16.45;;;4.53;;
40074;SDS011;26529;51.530;11.754;2023-02-18T12:08:29;11.90;;;3.70;;
40074;SDS011;26529;51.530;11.754;2023-02-18T12:11:00;14.65;;;3.70;;
40074;SDS011;26529;51.530;11.754;2023-02-18T12:13:38;14.68;;;3.20;;
40074;SDS011;26529;51.530;11.754;2023-02-18T12:22:03;14.70;;;3.40;;
40074;SDS011;26529;51.530;11.754;2023-02-18T12:25:03;9.60;;;2.95;;
40074;SDS011;26529;51.530;11.754;2023-02-18T12:33:49;10.73;;;3.70;;
40074;SDS011;26529;51.530;11.754;2023-02-18T12:36:33;12.23;;;3.20;;
40074;SDS011;26529;51.530;11.754;2023-02-18T12:39:22;10.05;;;2.80;;
40074;SDS011;26529;51.530;11.754;2023-02-18T12:45:01;15.77;;;4.07;;
40074;SDS011;26529;51.530;11.754;2023-02-18T12:50:53;14.02;;;3.40;;
40074;SDS011;26529;51.530;11.754;2023-02-18T12:56:06;15.32;;;3.17;;
40074;SDS011;26529;51.530;11.754;2023-02-18T13:01:38;16.55;;;3.05;;
40074;SDS011;26529;51.530;11.754;2023-02-18T13:04:34;8.05;;;2.67;;
40074;SDS011;26529;51.530;11.754;2023-02-18T13:10:06;14.80;;;2.92;;
40074;SDS011;26529;51.530;11.754;2023-02-18T13:18:15;10.75;;;2.67;;
40074;SDS011;26529;51.530;11.754;2023-02-18T13:20:50;12.30;;;3.10;;
40074;SDS011;26529;51.530;11.754;2023-02-18T13:23:20;11.07;;;2.92;;
40074;SDS011;26529;51.530;11.754;2023-02-18T13:25:50;13.88;;;3.65;;
40074;SDS011;26529;51.530;11.754;2023-02-18T13:31:10;9.85;;;2.85;;
40074;SDS011;26529;51.530;11.754;2023-02-18T13:33:55;15.45;;;3.67;;
40074;SDS011;26529;51.530;11.754;2023-02-18T13:36:42;10.02;;;2.85;;
40074;SDS011;26529;51.530;11.754;2023-02-18T13:39:16;16.77;;;2.95;;
40074;SDS011;26529;51.530;11.754;2023-02-18T13:41:49;6.75;;;2.63;;
40074;SDS011;26529;51.530;11.754;2023-02-18T13:49:14;11.30;;;3.45;;
40074;SDS011;26529;51.530;11.754;2023-02-18T13:51:45;8.50;;;2.45;;
40074;SDS011;26529;51.530;11.754;2023-02-18T13:56:42;8.65;;;3.03;;
40074;SDS011;26529;51.530;11.754;2023-02-18T14:04:52;9.07;;;2.42;;
40074;SDS011;26529;51.530;11.754;2023-02-18T14:10:01;9.77;;;3.58;;
40074;SDS011;26529;51.530;11.754;2023-02-18T14:14:54;8.40;;;2.30;;
40074;SDS011;26529;51.530;11.754;2023-02-18T14:19:54;8.23;;;2.47;;
40074;SDS011;26529;51.530;11.754;2023-02-18T14:22:27;8.23;;;2.33;;
40074;SDS011;26529;51.530;11.754;2023-02-18T14:27:32;9.32;;;2.30;;
40074;SDS011;26529;51.530;11.754;2023-02-18T14:30:05;8.48;;;2.33;;
40074;SDS011;26529;51.530;11.754;2023-02-18T14:32:39;9.73;;;2.45;;
40074;SDS011;26529;51.530;11.754;2023-02-18T14:35:13;9.07;;;2.72;;
40074;SDS011;26529;51.530;11.754;2023-02-18T14:37:48;7.53;;;2.17;;
40074;SDS011;26529;51.530;11.754;2023-02-18T14:40:55;6.88;;;2.13;;
40074;SDS011;26529;51.530;11.754;2023-02-18T14:46:50;7.82;;;2.10;;
40074;SDS011;26529;51.530;11.754;2023-02-18T14:49:42;7.65;;;2.45;;
40074;SDS011;26529;51.530;11.754;2023-02-18T14:52:20;13.05;;;2.83;;
40074;SDS011;26529;51.530;11.754;2023-02-18T14:54:53;11.40;;;2.78;;
40074;SDS011;26529;51.530;11.754;2023-02-18T14:57:18;6.85;;;2.50;;
40074;SDS011;26529;51.530;11.754;2023-02-18T14:59:56;8.70;;;2.05;;
40074;SDS011;26529;51.530;11.754;2023-02-18T15:02:24;6.80;;;1.98;;
40074;SDS011;26529;51.530;11.754;2023-02-18T15:04:52;4.90;;;2.30;;
40074;SDS011;26529;51.530;11.754;2023-02-18T15:07:19;9.48;;;2.40;;
40074;SDS011;26529;51.530;11.754;2023-02-18T15:09:46;6.93;;;2.35;;
40074;SDS011;26529;51.530;11.754;2023-02-18T15:12:17;6.53;;;2.00;;
40074;SDS011;26529;51.530;11.754;2023-02-18T15:14:46;6.45;;;2.08;;
40074;SDS011;26529;51.530;11.754;2023-02-18T15:17:15;5.03;;;1.80;;
40074;SDS011;26529;51.530;11.754;2023-02-18T15:19:46;7.10;;;1.83;;
40074;SDS011;26529;51.530;11.754;2023-02-18T15:22:19;7.28;;;1.67;;
40074;SDS011;26529;51.530;11.754;2023-02-18T15:24:47;5.72;;;1.70;;
40074;SDS011;26529;51.530;11.754;2023-02-18T15:29:47;6.10;;;1.92;;
40074;SDS011;26529;51.530;11.754;2023-02-18T15:32:19;7.28;;;2.13;;
40074;SDS011;26529;51.530;11.754;2023-02-18T15:34:50;5.65;;;2.13;;
40074;SDS011;26529;51.530;11.754;2023-02-18T15:37:17;5.45;;;1.80;;
40074;SDS011;26529;51.530;11.754;2023-02-18T15:39:43;7.50;;;2.05;;
40074;SDS011;26529;51.530;11.754;2023-02-18T15:44:57;6.43;;;2.13;;
40074;SDS011;26529;51.530;11.754;2023-02-18T15:47:29;7.85;;;2.10;;
40074;SDS011;26529;51.530;11.754;2023-02-18T15:49:57;5.60;;;2.00;;
40074;SDS011;26529;51.530;11.754;2023-02-18T15:52:26;6.25;;;1.80;;
40074;SDS011;26529;51.530;11.754;2023-02-18T15:54:55;6.15;;;2.10;;
40074;SDS011;26529;51.530;11.754;2023-02-18T15:57:27;6.93;;;1.77;;
40074;SDS011;26529;51.530;11.754;2023-02-18T15:59:56;6.25;;;2.08;;
40074;SDS011;26529;51.530;11.754;2023-02-18T16:02:31;8.98;;;2.40;;
40074;SDS011;26529;51.530;11.754;2023-02-18T16:04:58;4.10;;;1.75;;
40074;SDS011;26529;51.530;11.754;2023-02-18T16:07:29;7.15;;;1.90;;
40074;SDS011;26529;51.530;11.754;2023-02-18T16:12:43;4.78;;;1.30;;
40074;SDS011;26529;51.530;11.754;2023-02-18T16:15:15;6.93;;;2.13;;
40074;SDS011;26529;51.530;11.754;2023-02-18T16:17:54;7.03;;;1.80;;
40074;SDS011;26529;51.530;11.754;2023-02-18T16:22:46;5.00;;;1.42;;
40074;SDS011;26529;51.530;11.754;2023-02-18T16:25:22;9.18;;;2.10;;
40074;SDS011;26529;51.530;11.754;2023-02-18T16:27:52;7.55;;;1.95;;
40074;SDS011;26529;51.530;11.754;2023-02-18T16:30:27;10.32;;;2.53;;
40074;SDS011;26529;51.530;11.754;2023-02-18T16:32:55;9.63;;;1.48;;
40074;SDS011;26529;51.530;11.754;2023-02-18T16:35:22;8.80;;;2.00;;
40074;SDS011;26529;51.530;11.754;2023-02-18T16:37:49;4.57;;;1.55;;
40074;SDS011;26529;51.530;11.754;2023-02-18T16:40:24;9.55;;;1.98;;
40074;SDS011;26529;51.530;11.754;2023-02-18T16:42:53;7.95;;;1.70;;
40074;SDS011;26529;51.530;11.754;2023-02-18T16:45:20;8.10;;;1.85;;
40074;SDS011;26529;51.530;11.754;2023-02-18T16:47:57;7.82;;;2.60;;
40074;SDS011;26529;51.530;11.754;2023-02-18T16:50:22;9.13;;;2.28;;
40074;SDS011;26529;51.530;11.754;2023-02-18T16:52:48;7.97;;;1.70;;
40074;SDS011;26529;51.530;11.754;2023-02-18T16:55:17;9.00;;;1.95;;
40074;SDS011;26529;51.530;11.754;2023-02-18T16:57:45;9.07;;;2.13;;